createdAt,value
2022-10-15T00:01:48.180Z,97958.09
2022-10-15T00:03:50.065Z,97960.84
2022-10-15T00:05:51.658Z,97964.44
2022-10-15T00:07:54.062Z,97958.91
2022-10-15T00:09:55.544Z,97949.00
2022-10-15T00:11:57.502Z,97957.28
2022-10-15T00:14:00.411Z,97948.19
2022-10-15T00:16:02.166Z,97951.25
2022-10-15T00:18:03.920Z,97960.84
2022-10-15T00:20:12.395Z,97954.50
2022-10-15T00:22:14.044Z,97948.50
2022-10-15T00:24:15.897Z,97941.84
2022-10-15T00:26:26.123Z,97937.78
2022-10-15T00:28:31.859Z,97933.09
2022-10-15T00:30:35.878Z,97936.63
2022-10-15T00:32:37.559Z,97933.09
2022-10-15T00:34:41.588Z,97934.69
2022-10-15T00:36:43.072Z,97938.59
2022-10-15T00:38:44.842Z,97925.09
2022-10-15T00:40:46.499Z,97911.00
2022-10-15T00:42:48.057Z,97915.69
2022-10-15T00:44:55.471Z,97913.25
2022-10-15T00:47:04.346Z,97913.25
2022-10-15T00:49:18.805Z,97912.75
2022-10-15T00:51:21.198Z,97916.00
2022-10-15T00:53:23.310Z,97921.03
2022-10-15T00:55:27.100Z,97927.38
2022-10-15T00:57:31.426Z,97922.19
2022-10-15T00:59:39.017Z,97914.69
2022-10-15T01:01:40.858Z,97909.16
2022-10-15T01:03:43.028Z,97907.56
2022-10-15T01:05:49.083Z,97902.84
2022-10-15T01:07:50.639Z,97907.22
2022-10-15T01:09:52.245Z,97898.47
2022-10-15T01:11:55.933Z,97901.22
2022-10-15T01:14:45.363Z,97893.91
2022-10-15T01:17:13.602Z,97890.81
2022-10-15T01:19:31.630Z,97886.75
2022-10-15T01:21:51.225Z,97877.63
2022-10-15T01:24:38.137Z,97883.16
2022-10-15T01:27:09.645Z,97885.91
2022-10-15T01:29:34.007Z,97894.19
2022-10-15T01:31:49.485Z,97887.88
2022-10-15T01:34:02.500Z,97886.75
2022-10-15T01:36:06.412Z,97885.63
2022-10-15T01:38:33.301Z,97887.56
2022-10-15T01:40:50.384Z,97882.38
2022-10-15T01:42:58.046Z,97865.47
2022-10-15T01:45:18.642Z,97861.91
2022-10-15T01:47:46.796Z,97858.66
2022-10-15T01:49:52.760Z,97862.72
2022-10-15T01:51:57.236Z,97861.09
2022-10-15T01:54:00.109Z,97868.25
2022-10-15T01:56:12.754Z,97861.59
2022-10-15T01:58:17.746Z,97854.44
2022-10-15T02:00:19.502Z,97857.84
2022-10-15T02:02:21.273Z,97861.09
2022-10-15T02:04:31.138Z,97855.56
2022-10-15T02:06:39.682Z,97849.56
2022-10-15T02:09:10.644Z,97845.66
2022-10-15T02:11:15.932Z,97859.13
2022-10-15T02:13:40.007Z,97846.78
2022-10-15T02:16:02.384Z,97841.28
2022-10-15T02:18:20.040Z,97846.78
2022-10-15T02:20:28.877Z,97847.94
2022-10-15T02:22:42.007Z,97838.81
2022-10-15T02:24:58.386Z,97840.44
2022-10-15T02:27:03.204Z,97832.69
2022-10-15T02:29:10.365Z,97839.34
2022-10-15T02:31:16.270Z,97831.88
2022-10-15T02:33:18.529Z,97829.13
2022-10-15T02:35:23.869Z,97831.88
2022-10-15T02:37:27.885Z,97823.59
2022-10-15T02:39:29.729Z,97826.34
2022-10-15T02:41:35.911Z,97824.41
2022-10-15T02:43:38.307Z,97823.59
2022-10-15T02:45:40.004Z,97826.34
2022-10-15T02:47:41.523Z,97815.31
2022-10-15T02:49:43.437Z,97810.91
2022-10-15T02:51:44.983Z,97808.97
2022-10-15T02:53:50.842Z,97814.81
2022-10-15T02:55:53.863Z,97815.63
2022-10-15T02:57:55.519Z,97808.16
2022-10-15T02:59:57.415Z,97805.41
2022-10-15T03:01:58.944Z,97810.91
2022-10-15T03:04:02.051Z,97806.53
2022-10-15T03:06:06.168Z,97809.31
2022-10-15T03:08:07.613Z,97810.91
2022-10-15T03:10:09.911Z,97804.56
2022-10-15T03:12:11.507Z,97802.63
2022-10-15T03:14:13.174Z,97799.88
2022-10-15T03:16:15.661Z,97807.03
2022-10-15T03:18:20.182Z,97803.44
2022-10-15T03:20:22.234Z,97800.69
2022-10-15T03:22:24.111Z,97799.06
2022-10-15T03:24:28.214Z,97802.63
2022-10-15T03:26:30.002Z,97796.00
2022-10-15T03:28:31.672Z,97792.75
2022-10-15T03:30:33.464Z,97797.41
2022-10-15T03:32:36.342Z,97804.56
2022-10-15T03:34:39.733Z,97793.53
2022-10-15T03:36:42.329Z,97799.06
2022-10-15T03:38:45.827Z,97805.09
2022-10-15T03:40:48.841Z,97804.28
2022-10-15T03:42:56.467Z,97800.69
2022-10-15T03:44:59.162Z,97808.97
2022-10-15T03:47:00.886Z,97807.03
2022-10-15T03:49:12.605Z,97808.63
2022-10-15T03:51:17.042Z,97808.63
2022-10-15T03:53:24.677Z,97808.34
2022-10-15T03:55:26.313Z,97805.56
2022-10-15T03:57:28.035Z,97815.81
2022-10-15T03:59:35.762Z,97809.47
2022-10-15T04:01:38.718Z,97800.88
2022-10-15T04:03:40.984Z,97806.41
2022-10-15T04:05:53.798Z,97795.34
2022-10-15T04:07:58.611Z,97805.56
2022-10-15T04:10:02.078Z,97810.28
2022-10-15T04:12:12.623Z,97801.19
2022-10-15T04:14:14.527Z,97812.69
2022-10-15T04:16:17.909Z,97800.88
2022-10-15T04:18:21.814Z,97805.25
2022-10-15T04:20:27.421Z,97809.94
2022-10-15T04:22:37.329Z,97810.75
2022-10-15T04:24:39.836Z,97812.69
2022-10-15T04:26:42.038Z,97809.66
2022-10-15T04:28:49.697Z,97810.47
2022-10-15T04:30:59.748Z,97806.88
2022-10-15T04:33:01.662Z,97809.66
2022-10-15T04:35:03.458Z,97814.84
2022-10-15T04:37:23.791Z,97809.66
2022-10-15T04:39:25.617Z,97809.94
2022-10-15T04:41:27.067Z,97806.88
2022-10-15T04:43:34.874Z,97813.53
2022-10-15T04:45:40.650Z,97803.31
2022-10-15T04:47:42.355Z,97810.47
2022-10-15T04:49:47.341Z,97805.72
2022-10-15T04:52:02.843Z,97807.69
2022-10-15T04:54:23.073Z,97810.47
2022-10-15T04:56:37.456Z,97805.72
2022-10-15T04:58:39.404Z,97814.00
2022-10-15T05:00:41.303Z,97814.84
2022-10-15T05:02:43.360Z,97814.00
2022-10-15T05:04:58.385Z,97802.97
2022-10-15T05:06:59.883Z,97809.31
2022-10-15T05:09:02.071Z,97816.78
2022-10-15T05:11:17.846Z,97812.06
2022-10-15T05:13:19.437Z,97814.84
2022-10-15T05:15:21.127Z,97815.66
2022-10-15T05:17:22.986Z,97821.16
2022-10-15T05:19:24.860Z,97828.31
2022-10-15T05:21:27.051Z,97827.50
2022-10-15T05:23:32.063Z,97823.13
2022-10-15T05:25:49.300Z,97831.09
2022-10-15T05:27:56.780Z,97835.47
2022-10-15T05:29:58.774Z,97834.34
2022-10-15T05:32:08.986Z,97843.75
2022-10-15T05:34:12.502Z,97839.84
2022-10-15T05:36:28.845Z,97836.28
2022-10-15T05:38:30.435Z,97845.38
2022-10-15T05:40:32.141Z,97847.00
2022-10-15T05:42:42.077Z,97845.38
2022-10-15T05:44:44.085Z,97842.63
2022-10-15T05:46:45.568Z,97847.00
2022-10-15T05:48:55.984Z,97839.84
2022-10-15T05:51:05.791Z,97844.22
2022-10-15T05:53:07.513Z,97847.50
2022-10-15T05:55:30.298Z,97854.97
2022-10-15T05:57:31.747Z,97852.50
2022-10-15T05:59:35.570Z,97857.72
2022-10-15T06:01:37.968Z,97851.38
2022-10-15T06:03:40.927Z,97854.97
2022-10-15T06:05:42.503Z,97854.97
2022-10-15T06:07:44.011Z,97860.16
2022-10-15T06:09:45.532Z,97857.41
2022-10-15T06:11:47.125Z,97862.09
2022-10-15T06:13:53.367Z,97872.84
2022-10-15T06:15:55.115Z,97863.72
2022-10-15T06:17:56.652Z,97877.22
2022-10-15T06:19:58.317Z,97878.34
2022-10-15T06:22:00.012Z,97879.97
2022-10-15T06:24:03.139Z,97886.31
2022-10-15T06:26:09.449Z,97889.88
2022-10-15T06:28:11.275Z,97895.41
2022-10-15T06:30:19.467Z,97895.91
2022-10-15T06:32:21.045Z,97893.97
2022-10-15T06:34:22.721Z,97903.38
2022-10-15T06:36:25.612Z,97910.03
2022-10-15T06:38:27.198Z,97907.28
2022-10-15T06:40:29.087Z,97909.72
2022-10-15T06:42:30.590Z,97909.41
2022-10-15T06:44:32.163Z,97916.53
2022-10-15T06:46:33.780Z,97920.94
2022-10-15T06:48:35.347Z,97925.81
2022-10-15T06:50:38.338Z,97923.84
2022-10-15T06:52:39.881Z,97929.91
2022-10-15T06:54:41.480Z,97923.22
2022-10-15T06:56:45.644Z,97929.56
2022-10-15T06:58:47.294Z,97929.22
2022-10-15T07:00:48.832Z,97925.69
2022-10-15T07:02:51.428Z,97934.75
2022-10-15T07:04:53.095Z,97930.88
2022-10-15T07:06:55.175Z,97946.81
2022-10-15T07:08:58.316Z,97947.63
2022-10-15T07:11:05.222Z,97942.91
2022-10-15T07:13:06.677Z,97946.19
2022-10-15T07:15:08.603Z,97949.44
2022-10-15T07:17:10.160Z,97951.03
2022-10-15T07:19:11.721Z,97948.28
2022-10-15T07:21:13.649Z,97947.16
2022-10-15T07:23:15.331Z,97954.31
2022-10-15T07:25:17.577Z,97949.59
2022-10-15T07:27:20.698Z,97950.88
2022-10-15T07:29:22.322Z,97958.88
2022-10-15T07:31:24.182Z,97962.47
2022-10-15T07:33:25.709Z,97960.19
2022-10-15T07:35:34.241Z,97972.84
2022-10-15T07:37:35.777Z,97974.16
2022-10-15T07:39:40.674Z,97969.63
2022-10-15T07:41:43.349Z,97979.53
2022-10-15T07:43:44.979Z,97973.69
2022-10-15T07:45:50.101Z,97985.25
2022-10-15T07:47:52.046Z,97988.50
2022-10-15T07:49:53.483Z,97985.72
2022-10-15T07:51:55.015Z,97988.97
2022-10-15T07:53:59.444Z,97991.09
2022-10-15T07:56:03.061Z,97999.88
2022-10-15T07:58:08.450Z,98007.06
2022-10-15T08:00:10.458Z,98004.47
2022-10-15T08:02:16.663Z,98009.66
2022-10-15T08:04:20.333Z,98006.56
2022-10-15T08:06:24.077Z,98003.50
2022-10-15T08:08:25.609Z,98012.78
2022-10-15T08:10:27.876Z,98014.41
2022-10-15T08:12:29.467Z,98016.56
2022-10-15T08:14:31.173Z,98021.47
2022-10-15T08:16:32.761Z,98019.19
2022-10-15T08:18:34.738Z,98027.63
2022-10-15T08:20:37.848Z,98031.69
2022-10-15T08:22:39.968Z,98019.53
2022-10-15T08:24:42.410Z,98028.31
2022-10-15T08:26:44.098Z,98025.72
2022-10-15T08:28:45.864Z,98029.31
2022-10-15T08:30:47.492Z,98035.81
2022-10-15T08:32:49.135Z,98031.91
2022-10-15T08:34:50.745Z,98030.47
2022-10-15T08:36:52.659Z,98035.66
2022-10-15T08:38:54.505Z,98038.91
2022-10-15T08:40:59.738Z,98033.84
2022-10-15T08:43:02.464Z,98048.19
2022-10-15T08:45:19.715Z,98040.41
2022-10-15T08:47:34.258Z,98054.72
2022-10-15T08:49:43.777Z,98046.06
2022-10-15T08:51:52.662Z,98051.31
2022-10-15T08:54:03.507Z,98052.13
2022-10-15T08:56:15.070Z,98054.56
2022-10-15T08:58:25.471Z,98066.09
2022-10-15T09:00:46.442Z,98051.97
2022-10-15T09:03:11.719Z,98048.88
2022-10-15T09:05:45.800Z,98056.53
2022-10-15T09:07:58.666Z,98061.72
2022-10-15T09:10:29.092Z,98061.91
2022-10-15T09:12:47.786Z,98065.16
2022-10-15T09:14:50.374Z,98068.88
2022-10-15T09:16:52.027Z,98066.28
2022-10-15T09:18:54.517Z,98082.75
2022-10-15T09:20:58.157Z,98081.63
2022-10-15T09:23:00.011Z,98087.28
2022-10-15T09:25:15.022Z,98079.16
2022-10-15T09:27:32.858Z,98076.56
2022-10-15T09:29:47.929Z,98084.72
2022-10-15T09:32:08.607Z,98081.00
2022-10-15T09:34:36.137Z,98086.03
2022-10-15T09:36:46.388Z,98086.22
2022-10-15T09:39:29.129Z,98091.41
2022-10-15T09:41:54.829Z,98097.13
2022-10-15T09:43:59.201Z,98101.97
2022-10-15T09:46:05.172Z,98097.75
2022-10-15T09:48:18.662Z,98105.41
2022-10-15T09:50:20.169Z,98103.13
2022-10-15T09:52:40.554Z,98103.63
2022-10-15T09:54:48.477Z,98104.13
2022-10-15T09:56:54.169Z,98107.38
2022-10-15T09:58:58.121Z,98099.53
2022-10-15T10:01:07.880Z,98110.31
2022-10-15T10:03:15.338Z,98114.03
2022-10-15T10:05:20.252Z,98116.97
2022-10-15T10:07:30.504Z,98103.78
2022-10-15T10:09:36.257Z,98107.16
2022-10-15T10:11:51.545Z,98118.06
2022-10-15T10:14:00.756Z,98109.28
2022-10-15T10:16:05.991Z,98112.69
2022-10-15T10:18:18.830Z,98110.25
2022-10-15T10:20:22.879Z,98117.75
2022-10-15T10:22:24.574Z,98126.34
2022-10-15T10:24:32.069Z,98129.91
2022-10-15T10:26:36.100Z,98127.44
2022-10-15T10:28:46.485Z,98127.41
2022-10-15T10:31:03.719Z,98129.66
2022-10-15T10:33:05.978Z,98129.28
2022-10-15T10:35:21.094Z,98129.25
2022-10-15T10:37:23.453Z,98131.66
2022-10-15T10:39:28.461Z,98132.13
2022-10-15T10:41:59.310Z,98127.13
2022-10-15T10:44:00.934Z,98129.31
2022-10-15T10:46:24.538Z,98130.81
2022-10-15T10:48:43.083Z,98126.28
2022-10-15T10:50:44.628Z,98129.16
2022-10-15T10:52:46.175Z,98124.31
2022-10-15T10:54:53.148Z,98135.00
2022-10-15T10:56:56.511Z,98136.44
2022-10-15T10:59:20.719Z,98137.50
2022-10-15T11:01:24.163Z,98135.31
2022-10-15T11:03:38.624Z,98138.72
2022-10-15T11:05:40.662Z,98136.84
2022-10-15T11:08:10.300Z,98147.63
2022-10-15T11:10:21.332Z,98145.34
2022-10-15T11:12:34.015Z,98140.25
2022-10-15T11:15:03.788Z,98148.56
2022-10-15T11:17:08.503Z,98139.88
2022-10-15T11:19:19.950Z,98142.34
2022-10-15T11:22:14.332Z,98137.91
2022-10-15T11:24:21.398Z,98142.66
2022-10-15T11:27:10.905Z,98146.25
2022-10-15T11:29:18.804Z,98139.09
2022-10-15T11:31:49.077Z,98145.44
2022-10-15T11:34:31.823Z,98140.84
2022-10-15T11:36:43.921Z,98131.81
2022-10-15T11:39:14.701Z,98138.66
2022-10-15T11:41:32.402Z,98145.16
2022-10-15T11:43:45.957Z,98145.31
2022-10-15T11:45:58.975Z,98143.81
2022-10-15T11:48:08.345Z,98139.84
2022-10-15T11:50:24.916Z,98131.16
2022-10-15T11:52:47.246Z,98134.28
2022-10-15T11:55:07.821Z,98126.28
2022-10-15T11:57:14.611Z,98127.09
2022-10-15T11:59:36.102Z,98134.50
2022-10-15T12:01:45.513Z,98138.56
2022-10-15T12:04:13.086Z,98131.84
2022-10-15T12:06:17.576Z,98138.81
2022-10-15T12:08:21.370Z,98133.38
2022-10-15T12:10:51.978Z,98137.06
2022-10-15T12:13:31.238Z,98138.03
2022-10-15T12:15:52.299Z,98134.56
2022-10-15T12:18:18.262Z,98136.16
2022-10-15T12:20:22.404Z,98131.06
2022-10-15T12:22:56.831Z,98125.16
2022-10-15T12:24:58.534Z,98115.31
2022-10-15T12:27:19.285Z,98117.84
2022-10-15T12:29:26.130Z,98116.44
2022-10-15T12:31:46.256Z,98111.81
2022-10-15T12:33:52.185Z,98122.38
2022-10-15T12:35:57.078Z,98115.28
2022-10-15T12:38:11.730Z,98117.75
2022-10-15T12:40:22.543Z,98116.22
2022-10-15T12:42:34.678Z,98114.34
2022-10-15T12:44:36.968Z,98113.31
2022-10-15T12:46:40.101Z,98125.75
2022-10-15T12:48:44.537Z,98109.50
2022-10-15T12:50:46.215Z,98115.19
2022-10-15T12:52:55.094Z,98113.66
2022-10-15T12:55:20.527Z,98108.56
2022-10-15T12:57:31.268Z,98115.75
2022-10-15T12:59:44.882Z,98115.41
2022-10-15T13:01:46.400Z,98112.75
2022-10-15T13:03:51.009Z,98104.47
2022-10-15T13:05:55.278Z,98107.00
2022-10-15T13:08:24.874Z,98107.13
2022-10-15T13:10:34.170Z,98106.06
2022-10-15T13:12:38.038Z,98103.72
2022-10-15T13:14:48.416Z,98107.34
2022-10-15T13:16:50.712Z,98107.34
2022-10-15T13:18:55.634Z,98101.31
2022-10-15T13:20:57.938Z,98098.06
2022-10-15T13:23:30.216Z,98108.28
2022-10-15T13:25:32.494Z,98107.84
2022-10-15T13:27:37.891Z,98105.84
2022-10-15T13:29:39.473Z,98111.88
2022-10-15T13:31:44.932Z,98107.59
2022-10-15T13:33:50.627Z,98104.09
2022-10-15T13:35:52.462Z,98109.31
2022-10-15T13:37:54.153Z,98107.34
2022-10-15T13:39:57.023Z,98101.44
2022-10-15T13:42:16.785Z,98105.38
2022-10-15T13:44:23.357Z,98101.75
2022-10-15T13:46:30.925Z,98105.72
2022-10-15T13:48:32.987Z,98112.47
2022-10-15T13:50:36.285Z,98108.84
2022-10-15T13:52:42.733Z,98103.19
2022-10-15T13:54:46.797Z,98105.50
2022-10-15T13:56:54.195Z,98108.19
2022-10-15T13:58:57.225Z,98107.75
2022-10-15T14:01:21.099Z,98096.47
2022-10-15T14:03:26.217Z,98097.53
2022-10-15T14:05:27.804Z,98103.81
2022-10-15T14:07:29.369Z,98108.09
2022-10-15T14:09:34.253Z,98107.66
2022-10-15T14:11:36.104Z,98109.25
2022-10-15T14:13:45.019Z,98111.59
2022-10-15T14:15:59.380Z,98117.16
2022-10-15T14:18:01.104Z,98111.25
2022-10-15T14:20:26.218Z,98120.06
2022-10-15T14:22:29.298Z,98115.31
2022-10-15T14:24:39.746Z,98111.72
2022-10-15T14:26:41.530Z,98112.53
2022-10-15T14:28:50.150Z,98102.06
2022-10-15T14:30:52.405Z,98098.09
2022-10-15T14:32:54.689Z,98105.78
2022-10-15T14:34:57.767Z,98120.53
2022-10-15T14:37:00.079Z,98114.59
2022-10-15T14:39:27.504Z,98118.19
2022-10-15T14:41:31.538Z,98119.00
2022-10-15T14:43:35.514Z,98115.06
2022-10-15T14:45:57.634Z,98109.00
2022-10-15T14:48:03.228Z,98111.34
2022-10-15T14:50:06.694Z,98102.53
2022-10-15T14:52:15.067Z,98107.97
2022-10-15T14:54:26.355Z,98113.47
2022-10-15T14:56:33.252Z,98102.97
2022-10-15T14:58:37.224Z,98118.78
2022-10-15T15:00:42.669Z,98121.06
2022-10-15T15:02:44.342Z,98121.81
2022-10-15T15:05:03.784Z,98126.44
2022-10-15T15:07:31.475Z,98128.16
2022-10-15T15:09:32.926Z,98129.34
2022-10-15T15:11:34.539Z,98110.09
2022-10-15T15:13:44.853Z,98112.28
2022-10-15T15:15:46.901Z,98105.00
2022-10-15T15:17:49.199Z,98099.75
2022-10-15T15:19:53.008Z,98104.03
2022-10-15T15:21:54.689Z,98102.31
2022-10-15T15:23:56.090Z,98110.19
2022-10-15T15:25:57.653Z,98124.81
2022-10-15T15:28:00.194Z,98114.72
2022-10-15T15:30:01.637Z,98119.31
2022-10-15T15:32:03.286Z,98122.47
2022-10-15T15:34:04.805Z,98112.03
2022-10-15T15:36:18.930Z,98117.81
2022-10-15T15:38:30.666Z,98120.47
2022-10-15T15:40:32.544Z,98122.28
2022-10-15T15:42:34.054Z,98129.34
2022-10-15T15:44:35.512Z,98126.47
2022-10-15T15:46:36.997Z,98129.44
2022-10-15T15:48:38.742Z,98135.72
2022-10-15T15:50:40.278Z,98139.50
2022-10-15T15:52:43.594Z,98133.94
2022-10-15T15:54:48.663Z,98136.94
2022-10-15T15:56:50.113Z,98146.31
2022-10-15T15:58:52.508Z,98146.97
2022-10-15T16:00:53.984Z,98155.22
2022-10-15T16:02:57.909Z,98147.09
2022-10-15T16:05:01.656Z,98161.66
2022-10-15T16:07:03.317Z,98151.22
2022-10-15T16:09:05.715Z,98151.91
2022-10-15T16:11:07.368Z,98152.91
2022-10-15T16:13:08.882Z,98156.72
2022-10-15T16:15:13.583Z,98156.25
2022-10-15T16:17:16.751Z,98162.50
2022-10-15T16:19:18.329Z,98168.72
2022-10-15T16:21:24.231Z,98151.91
2022-10-15T16:23:26.042Z,98173.16
2022-10-15T16:25:29.954Z,98166.31
2022-10-15T16:27:33.896Z,98158.19
2022-10-15T16:29:35.646Z,98159.34
2022-10-15T16:31:37.298Z,98164.75
2022-10-15T16:33:38.868Z,98164.28
2022-10-15T16:35:40.748Z,98179.53
2022-10-15T16:37:42.524Z,98183.31
2022-10-15T16:39:44.196Z,98187.22
2022-10-15T16:41:45.871Z,98175.34
2022-10-15T16:43:48.275Z,98184.81
2022-10-15T16:45:59.631Z,98176.81
2022-10-15T16:48:01.285Z,98180.72
2022-10-15T16:50:04.310Z,98192.31
2022-10-15T16:52:05.875Z,98197.53
2022-10-15T16:54:07.675Z,98190.81
2022-10-15T16:56:14.189Z,98197.53
2022-10-15T16:58:15.842Z,98197.53
2022-10-15T17:00:17.470Z,98207.50
2022-10-15T17:02:19.090Z,98201.94
2022-10-15T17:04:20.680Z,98205.53
2022-10-15T17:06:25.758Z,98201.94
2022-10-15T17:08:35.656Z,98204.72
2022-10-15T17:10:42.160Z,98205.06
2022-10-15T17:12:43.697Z,98211.28
2022-10-15T17:14:50.866Z,98226.00
2022-10-15T17:16:52.917Z,98221.91
2022-10-15T17:18:56.404Z,98220.28
2022-10-15T17:20:58.021Z,98227.31
2022-10-15T17:22:59.748Z,98236.47
2022-10-15T17:25:01.300Z,98230.75
2022-10-15T17:27:03.587Z,98228.31
2022-10-15T17:29:06.988Z,98225.91
2022-10-15T17:31:11.905Z,98229.34
2022-10-15T17:33:16.708Z,98234.41
2022-10-15T17:35:18.470Z,98244.22
2022-10-15T17:37:20.030Z,98247.66
2022-10-15T17:39:24.783Z,98241.63
2022-10-15T17:41:28.726Z,98255.00
2022-10-15T17:43:30.322Z,98253.25
2022-10-15T17:45:31.869Z,98261.91
2022-10-15T17:47:33.523Z,98260.63
2022-10-15T17:49:35.115Z,98265.66
2022-10-15T17:51:37.090Z,98263.88
2022-10-15T17:53:42.619Z,98262.56
2022-10-15T17:55:44.190Z,98254.56
2022-10-15T17:57:45.866Z,98256.88
2022-10-15T17:59:50.370Z,98260.31
2022-10-15T18:01:58.364Z,98254.28
2022-10-15T18:04:00.698Z,98257.72
2022-10-15T18:06:15.126Z,98260.31
2022-10-15T18:08:18.093Z,98271.75
2022-10-15T18:10:19.655Z,98264.91
2022-10-15T18:12:21.192Z,98274.38
2022-10-15T18:14:22.996Z,98269.00
2022-10-15T18:16:24.644Z,98263.31
2022-10-15T18:18:26.957Z,98273.88
2022-10-15T18:20:28.628Z,98263.97
2022-10-15T18:22:30.352Z,98269.34
2022-10-15T18:24:33.092Z,98264.94
2022-10-15T18:26:39.231Z,98273.59
2022-10-15T18:28:45.338Z,98272.75
2022-10-15T18:30:46.930Z,98281.75
2022-10-15T18:32:52.218Z,98284.84
2022-10-15T18:34:56.067Z,98291.56
2022-10-15T18:36:59.831Z,98296.59
2022-10-15T18:39:01.308Z,98289.44
2022-10-15T18:41:03.314Z,98294.50
2022-10-15T18:43:05.480Z,98288.44
2022-10-15T18:45:07.495Z,98293.97
2022-10-15T18:47:09.076Z,98296.28
2022-10-15T18:49:19.142Z,98302.16
2022-10-15T18:51:21.059Z,98308.00
2022-10-15T18:53:23.672Z,98307.53
2022-10-15T18:55:25.471Z,98303.16
2022-10-15T18:57:27.035Z,98297.44
2022-10-15T18:59:28.788Z,98308.84
2022-10-15T19:01:41.963Z,98304.44
2022-10-15T19:03:45.121Z,98308.34
2022-10-15T19:05:48.404Z,98305.91
2022-10-15T19:07:55.361Z,98300.69
2022-10-15T19:09:57.004Z,98303.78
2022-10-15T19:12:01.309Z,98302.97
2022-10-15T19:14:03.982Z,98303.94
2022-10-15T19:16:06.148Z,98303.94
2022-10-15T19:18:11.130Z,98311.78
2022-10-15T19:20:12.990Z,98321.72
2022-10-15T19:22:14.739Z,98322.88
2022-10-15T19:24:17.890Z,98315.66
2022-10-15T19:26:19.637Z,98317.94
2022-10-15T19:28:21.317Z,98311.09
2022-10-15T19:30:23.545Z,98311.41
2022-10-15T19:32:25.112Z,98304.22
2022-10-15T19:34:27.385Z,98300.97
2022-10-15T19:36:32.155Z,98307.34
2022-10-15T19:38:33.786Z,98305.69
2022-10-15T19:40:39.249Z,98309.63
2022-10-15T19:42:40.929Z,98317.44
2022-10-15T19:44:42.790Z,98326.56
2022-10-15T19:46:46.569Z,98330.78
2022-10-15T19:48:48.560Z,98333.41
2022-10-15T19:50:50.169Z,98329.81
2022-10-15T19:52:52.003Z,98334.88
2022-10-15T19:54:53.705Z,98335.38
2022-10-15T19:56:55.357Z,98333.72
2022-10-15T19:58:59.304Z,98332.91
2022-10-15T20:01:01.024Z,98331.59
2022-10-15T20:03:02.686Z,98331.59
2022-10-15T20:05:04.744Z,98332.41
2022-10-15T20:07:06.242Z,98352.63
2022-10-15T20:09:08.751Z,98356.53
2022-10-15T20:11:10.969Z,98359.28
2022-10-15T20:13:14.919Z,98356.03
2022-10-15T20:15:16.475Z,98358.81
2022-10-15T20:17:18.061Z,98364.34
2022-10-15T20:19:21.588Z,98370.22
2022-10-15T20:21:23.285Z,98368.28
2022-10-15T20:23:28.596Z,98371.34
2022-10-15T20:25:30.354Z,98372.19
2022-10-15T20:27:32.262Z,98373.31
2022-10-15T20:29:34.066Z,98368.91
2022-10-15T20:31:36.004Z,98377.53
2022-10-15T20:33:38.521Z,98375.59
2022-10-15T20:35:41.429Z,98372.81
2022-10-15T20:37:43.074Z,98376.75
2022-10-15T20:39:45.022Z,98382.59
2022-10-15T20:41:46.927Z,98390.06
2022-10-15T20:44:00.650Z,98387.31
2022-10-15T20:46:02.846Z,98393.19
2022-10-15T20:48:07.235Z,98392.34
2022-10-15T20:50:16.163Z,98396.28
2022-10-15T20:52:17.904Z,98407.34
2022-10-15T20:54:20.336Z,98400.19
2022-10-15T20:56:23.491Z,98404.91
2022-10-15T20:58:25.968Z,98396.91
2022-10-15T21:00:27.869Z,98399.19
2022-10-15T21:02:31.482Z,98390.38
2022-10-15T21:04:33.519Z,98398.66
2022-10-15T21:06:39.029Z,98389.53
2022-10-15T21:08:40.625Z,98387.94
2022-10-15T21:10:42.204Z,98387.44
2022-10-15T21:12:43.917Z,98394.91
2022-10-15T21:14:48.687Z,98388.91
2022-10-15T21:16:50.338Z,98390.50
2022-10-15T21:18:51.875Z,98391.66
2022-10-15T21:21:06.389Z,98389.19
2022-10-15T21:23:08.103Z,98395.56
2022-10-15T21:25:09.974Z,98393.13
2022-10-15T21:27:11.781Z,98389.53
2022-10-15T21:29:19.457Z,98393.13
2022-10-15T21:31:21.263Z,98406.44
2022-10-15T21:33:23.269Z,98410.38
2022-10-15T21:35:25.075Z,98405.13
2022-10-15T21:37:27.057Z,98401.56
2022-10-15T21:39:29.234Z,98418.50
2022-10-15T21:41:35.277Z,98421.59
2022-10-15T21:43:37.232Z,98419.63
2022-10-15T21:45:39.024Z,98416.69
2022-10-15T21:47:41.037Z,98419.78
2022-10-15T21:49:42.754Z,98421.72
2022-10-15T21:51:44.383Z,98420.41
2022-10-15T21:53:51.205Z,98419.91
2022-10-15T21:55:54.309Z,98418.28
2022-10-15T21:57:55.952Z,98418.59
2022-10-15T22:00:00.506Z,98424.44
2022-10-15T22:02:05.174Z,98423.75
2022-10-15T22:04:08.593Z,98423.44
2022-10-15T22:06:11.427Z,98424.06
2022-10-15T22:08:13.117Z,98427.19
2022-10-15T22:10:14.862Z,98427.44
2022-10-15T22:12:18.979Z,98414.44
2022-10-15T22:14:22.690Z,98416.69
2022-10-15T22:16:26.204Z,98405.94
2022-10-15T22:18:30.769Z,98410.16
2022-10-15T22:20:32.358Z,98418.78
2022-10-15T22:22:33.968Z,98414.38
2022-10-15T22:24:35.580Z,98419.41
2022-10-15T22:26:40.587Z,98424.94
2022-10-15T22:28:43.220Z,98420.84
2022-10-15T22:30:45.006Z,98427.53
2022-10-15T22:32:46.769Z,98430.59
2022-10-15T22:34:48.369Z,98426.22
2022-10-15T22:36:50.411Z,98430.09
2022-10-15T22:38:57.891Z,98424.91
2022-10-15T22:40:59.651Z,98423.25
2022-10-15T22:43:02.892Z,98428.28
2022-10-15T22:45:04.999Z,98434.13
2022-10-15T22:47:06.707Z,98430.25
2022-10-15T22:49:09.825Z,98431.34
2022-10-15T22:51:13.278Z,98430.03
2022-10-15T22:53:14.799Z,98438.66
2022-10-15T22:55:16.475Z,98429.53
2022-10-15T22:57:18.066Z,98436.53
2022-10-15T22:59:20.120Z,98451.50
2022-10-15T23:01:24.886Z,98447.91
2022-10-15T23:03:26.558Z,98441.56
2022-10-15T23:05:28.386Z,98447.91
2022-10-15T23:07:30.024Z,98450.97
2022-10-15T23:09:31.639Z,98448.53
2022-10-15T23:11:35.719Z,98443.34
2022-10-15T23:13:39.203Z,98448.88
2022-10-15T23:15:41.369Z,98447.22
2022-10-15T23:17:43.201Z,98448.88
2022-10-15T23:19:44.605Z,98450.81
2022-10-15T23:21:50.719Z,98447.22
2022-10-15T23:23:52.450Z,98453.69
2022-10-15T23:25:54.042Z,98449.00
2022-10-15T23:27:55.799Z,98457.78
2022-10-15T23:30:07.638Z,98453.69
2022-10-15T23:34:39.035Z,98453.69
2022-10-15T23:36:41.570Z,98460.34
2022-10-15T23:38:46.897Z,98454.81
2022-10-15T23:40:49.449Z,98454.81
2022-10-15T23:42:51.261Z,98458.72
2022-10-15T23:44:53.063Z,98453.50
2022-10-15T23:46:54.969Z,98452.38
2022-10-15T23:48:56.569Z,98453.19
2022-10-15T23:51:02.423Z,98451.56
2022-10-15T23:53:05.544Z,98449.63
2022-10-15T23:55:07.513Z,98459.84
2022-10-15T23:57:09.467Z,98455.44
2022-10-15T23:59:11.109Z,98460.19
